Time;durP1;ratioP1;P1;durP2;ratioP2;P2;SDS_P1;SDS_P2;PMS_P1;PMS_P2;Temp;Humidity;BMP_temperature;BMP_pressure;BME280_temperature;BME280_humidity;BME280_pressure;Samples;Min_cycle;Max_cycle;Signal;HPM_P1;HPM_P2
2023/06/02 00:00:05;;;;;;;;;;;16.70;99.90;;;;;;5035129;28;19963;-65
2023/06/02 00:02:33;;;;;;;;;;;16.90;99.90;;;;;;5034524;28;19910;-63
2023/06/02 00:05:01;;;;;;;;;;;17.10;99.90;;;;;;5034897;28;19910;-67
2023/06/02 00:07:28;;;;;;;;;;;17.10;99.90;;;;;;5034852;28;19920;-64
2023/06/02 00:09:55;;;;;;;;;;;17.00;99.90;;;;;;5034981;28;20320;-66
2023/06/02 00:12:22;;;;;;;;;;;17.00;99.90;;;;;;5033271;28;19913;-66
2023/06/02 00:14:49;;;;;;;;;;;17.10;99.90;;;;;;5033727;28;20369;-67
2023/06/02 00:17:19;;;;;;;;;;;17.10;99.90;;;;;;5034874;28;20394;-64
2023/06/02 00:19:47;;;;;;;;;;;17.00;99.90;;;;;;5034584;28;19970;-65
2023/06/02 00:22:14;;;;;;;;;;;17.10;99.90;;;;;;5034325;28;19917;-66
2023/06/02 00:24:44;;;;;;;;;;;17.10;99.90;;;;;;5034421;28;19916;-67
2023/06/02 00:27:13;;;;;;;;;;;17.20;99.90;;;;;;5034464;28;19999;-67
2023/06/02 00:29:40;;;;;;;;;;;17.30;99.90;;;;;;5034742;28;19916;-64
2023/06/02 00:32:07;;;;;;;;;;;17.30;99.90;;;;;;5033576;28;19909;-64
2023/06/02 00:34:34;;;;;;;;;;;17.40;99.90;;;;;;5032918;28;19932;-66
2023/06/02 00:37:01;;;;;;;;;;;17.50;99.90;;;;;;5033506;28;19920;-65
2023/06/02 00:39:27;;;;;;;;;;;17.50;99.90;;;;;;5034661;28;19920;-67
2023/06/02 00:41:54;;;;;;;;;;;17.70;99.90;;;;;;5033752;28;19921;-67
2023/06/02 00:44:21;;;;;;;;;;;17.70;99.90;;;;;;5034457;28;19952;-66
2023/06/02 00:46:47;;;;;;;;;;;17.80;99.90;;;;;;5034383;28;19949;-68
2023/06/02 00:49:14;;;;;;;;;;;17.80;99.90;;;;;;5034314;28;19956;-62
2023/06/02 00:51:42;;;;;;;;;;;17.80;99.90;;;;;;5033762;28;19909;-64
2023/06/02 00:54:09;;;;;;;;;;;17.90;99.90;;;;;;5034328;28;20262;-66
2023/06/02 00:56:35;;;;;;;;;;;17.90;99.90;;;;;;5033286;28;20270;-67
2023/06/02 00:59:02;;;;;;;;;;;18.00;99.90;;;;;;5032863;28;19997;-66
2023/06/02 01:01:29;;;;;;;;;;;18.10;99.90;;;;;;5033153;28;19917;-67
2023/06/02 01:03:55;;;;;;;;;;;18.30;99.90;;;;;;5033254;28;19909;-64
2023/06/02 01:06:27;;;;;;;;;;;18.40;99.90;;;;;;5033078;28;19917;-66
2023/06/02 01:08:54;;;;;;;;;;;18.40;99.90;;;;;;5034153;28;19913;-68
2023/06/02 01:11:21;;;;;;;;;;;18.50;99.90;;;;;;5033771;28;19954;-67
2023/06/02 01:13:49;;;;;;;;;;;18.50;99.90;;;;;;5033482;28;19913;-67
2023/06/02 01:16:15;;;;;;;;;;;18.70;99.90;;;;;;5033395;28;20370;-67
2023/06/02 01:18:45;;;;;;;;;;;18.90;99.90;;;;;;5034112;28;20274;-67
2023/06/02 01:21:23;;;;;;;;;;;19.00;99.90;;;;;;5033649;28;19916;-65
2023/06/02 01:23:53;;;;;;;;;;;19.10;99.90;;;;;;5033799;28;19909;-67
2023/06/02 01:26:19;;;;;;;;;;;19.10;99.90;;;;;;5032791;28;19978;-65
2023/06/02 01:28:46;;;;;;;;;;;19.30;99.90;;;;;;5033077;28;20007;-67
2023/06/02 01:31:17;;;;;;;;;;;19.30;99.90;;;;;;5033168;28;20007;-65
2023/06/02 01:34:06;;;;;;;;;;;19.40;99.90;;;;;;5033841;28;19909;-66
2023/06/02 01:36:35;;;;;;;;;;;19.40;99.90;;;;;;5032769;28;19916;-65
2023/06/02 01:39:02;;;;;;;;;;;19.50;99.90;;;;;;5033715;28;20426;-67
2023/06/02 01:41:30;;;;;;;;;;;19.60;99.90;;;;;;5033612;28;19917;-66
2023/06/02 01:43:57;;;;;;;;;;;19.70;99.90;;;;;;5032980;28;20250;-67
2023/06/02 01:46:24;;;;;;;;;;;19.70;99.90;;;;;;5032140;28;19917;-66
2023/06/02 01:48:54;;;;;;;;;;;19.80;99.90;;;;;;5033064;28;19956;-67
2023/06/02 01:51:21;;;;;;;;;;;19.80;99.90;;;;;;5033511;28;20000;-66
2023/06/02 01:53:48;;;;;;;;;;;19.90;99.90;;;;;;5032759;28;19909;-66
2023/06/02 01:56:14;;;;;;;;;;;20.10;99.90;;;;;;5033149;28;19913;-67
2023/06/02 01:58:41;;;;;;;;;;;20.30;99.90;;;;;;5032222;28;19909;-64
2023/06/02 02:01:08;;;;;;;;;;;20.60;99.90;;;;;;5032825;28;19909;-66
2023/06/02 02:03:37;;;;;;;;;;;20.90;99.90;;;;;;5031307;28;19910;-67
2023/06/02 02:06:03;;;;;;;;;;;20.90;99.90;;;;;;5032613;28;19909;-67
2023/06/02 02:08:30;;;;;;;;;;;20.80;99.90;;;;;;5032874;28;19909;-65
2023/06/02 02:10:57;;;;;;;;;;;20.90;99.90;;;;;;5032508;28;20385;-66
2023/06/02 02:13:24;;;;;;;;;;;20.80;99.90;;;;;;5033611;28;20703;-67
2023/06/02 02:15:50;;;;;;;;;;;21.00;99.90;;;;;;5034077;28;20022;-66
2023/06/02 02:18:20;;;;;;;;;;;21.20;99.90;;;;;;5032973;28;19913;-66
2023/06/02 02:20:47;;;;;;;;;;;21.30;99.90;;;;;;5033737;28;19936;-64
2023/06/02 02:23:13;;;;;;;;;;;21.40;99.90;;;;;;5032463;28;20568;-68
2023/06/02 02:25:40;;;;;;;;;;;21.50;99.90;;;;;;5033060;28;19909;-67
2023/06/02 02:28:06;;;;;;;;;;;21.40;99.90;;;;;;5031752;28;19913;-66
2023/06/02 02:30:33;;;;;;;;;;;21.40;99.90;;;;;;5014383;28;19909;-66
2023/06/02 02:33:02;;;;;;;;;;;21.30;99.90;;;;;;5032494;28;19909;-67
2023/06/02 02:35:29;;;;;;;;;;;21.50;99.90;;;;;;5032213;28;19921;-65
2023/06/02 02:37:56;;;;;;;;;;;21.70;99.90;;;;;;5020389;28;20412;-66
2023/06/02 02:40:23;;;;;;;;;;;22.10;99.90;;;;;;5031758;28;19927;-65
2023/06/02 02:42:49;;;;;;;;;;;22.50;99.90;;;;;;5032205;28;19957;-66
2023/06/02 02:45:16;;;;;;;;;;;22.70;99.90;;;;;;5032556;28;19916;-64
2023/06/02 02:47:43;;;;;;;;;;;23.00;99.90;;;;;;5032409;28;19916;-66
2023/06/02 02:50:09;;;;;;;;;;;23.20;99.90;;;;;;5032034;28;20321;-66
2023/06/02 02:52:36;;;;;;;;;;;23.10;99.90;;;;;;5031747;28;19909;-66
2023/06/02 02:55:03;;;;;;;;;;;23.20;99.90;;;;;;5031471;28;19971;-67
2023/06/02 02:57:31;;;;;;;;;;;23.20;99.90;;;;;;5032298;28;19916;-65
2023/06/02 02:59:58;;;;;;;;;;;22.80;99.90;;;;;;5031699;28;19913;-68
2023/06/02 03:02:24;;;;;;;;;;;22.70;99.90;;;;;;5031191;28;20475;-65
2023/06/02 03:04:54;;;;;;;;;;;22.70;99.90;;;;;;5031869;28;19995;-64
2023/06/02 03:07:20;;;;;;;;;;;23.20;99.90;;;;;;5030368;28;20614;-67
2023/06/02 03:09:47;;;;;;;;;;;23.40;99.90;;;;;;5030409;28;19913;-65
2023/06/02 03:12:13;;;;;;;;;;;24.00;99.90;;;;;;5030399;28;19920;-64
2023/06/02 03:14:40;;;;;;;;;;;24.60;99.90;;;;;;5031194;28;20285;-65
2023/06/02 03:17:08;;;;;;;;;;;25.00;99.60;;;;;;5031033;28;19909;-67
2023/06/02 03:19:35;;;;;;;;;;;25.10;99.40;;;;;;5029763;28;19913;-65
2023/06/02 03:22:02;;;;;;;;;;;25.40;99.20;;;;;;5028836;28;19927;-65
2023/06/02 03:24:29;;;;;;;;;;;25.70;98.60;;;;;;5029879;28;19913;-66
2023/06/02 03:26:55;;;;;;;;;;;25.90;98.70;;;;;;5026800;28;19913;-66
2023/06/02 03:29:22;;;;;;;;;;;26.30;97.40;;;;;;5031121;28;19959;-68
2023/06/02 03:31:51;;;;;;;;;;;26.00;97.70;;;;;;5029969;28;19916;-65
2023/06/02 03:34:17;;;;;;;;;;;25.90;97.70;;;;;;5030648;28;19993;-65
2023/06/02 03:36:44;;;;;;;;;;;25.70;97.80;;;;;;5030626;28;19937;-65
2023/06/02 03:39:12;;;;;;;;;;;25.80;98.70;;;;;;5031032;28;19971;-64
2023/06/02 03:41:39;;;;;;;;;;;27.20;97.70;;;;;;5029867;28;19940;-64
2023/06/02 03:44:06;;;;;;;;;;;29.00;94.90;;;;;;5031233;28;19909;-66
2023/06/02 03:46:33;;;;;;;;;;;29.60;93.20;;;;;;5030724;28;20012;-67
2023/06/02 03:49:00;;;;;;;;;;;30.20;91.90;;;;;;5030181;28;19916;-65
2023/06/02 03:51:26;;;;;;;;;;;30.50;91.40;;;;;;5019829;28;20026;-65
2023/06/02 03:53:53;;;;;;;;;;;31.10;90.20;;;;;;5030646;28;19962;-67
2023/06/02 03:56:19;;;;;;;;;;;31.30;89.00;;;;;;5030513;28;19943;-65
2023/06/02 03:58:46;;;;;;;;;;;31.50;87.60;;;;;;5030933;28;19983;-68
2023/06/02 04:01:13;;;;;;;;;;;31.50;87.20;;;;;;5030160;28;20245;-65
2023/06/02 04:03:41;;;;;;;;;;;31.10;86.80;;;;;;5031005;28;19917;-66
2023/06/02 04:06:08;;;;;;;;;;;30.60;88.70;;;;;;5030445;28;19921;-64
2023/06/02 04:08:35;;;;;;;;;;;30.40;88.20;;;;;;5029590;28;20379;-64
2023/06/02 04:11:02;;;;;;;;;;;30.10;88.60;;;;;;5029482;28;19913;-66
2023/06/02 04:13:29;;;;;;;;;;;29.50;90.00;;;;;;5029747;28;19916;-66
2023/06/02 04:15:55;;;;;;;;;;;28.70;90.80;;;;;;5026085;28;19921;-66
2023/06/02 04:18:22;;;;;;;;;;;27.80;91.60;;;;;;5030608;28;19913;-64
2023/06/02 04:20:49;;;;;;;;;;;26.70;92.80;;;;;;5029611;28;19909;-67
2023/06/02 04:23:15;;;;;;;;;;;26.00;94.20;;;;;;5025425;28;19914;-65
2023/06/02 04:25:42;;;;;;;;;;;25.30;95.10;;;;;;5029644;28;19921;-65
2023/06/02 04:28:09;;;;;;;;;;;25.00;96.10;;;;;;5030622;28;20000;-64
2023/06/02 04:30:39;;;;;;;;;;;24.60;96.70;;;;;;5030870;28;19960;-64
2023/06/02 04:33:06;;;;;;;;;;;24.10;97.60;;;;;;5030814;28;20453;-65
2023/06/02 04:35:33;;;;;;;;;;;23.80;98.30;;;;;;5033601;28;19917;-66
2023/06/02 04:38:00;;;;;;;;;;;23.20;99.20;;;;;;5034435;28;19909;-66
2023/06/02 04:40:26;;;;;;;;;;;23.00;99.90;;;;;;5033642;28;19916;-67
2023/06/02 04:42:53;;;;;;;;;;;22.80;99.90;;;;;;5032787;28;19913;-67
2023/06/02 04:45:23;;;;;;;;;;;22.60;99.90;;;;;;5033368;28;19917;-67
2023/06/02 04:47:50;;;;;;;;;;;22.40;99.90;;;;;;5033623;28;20420;-66
2023/06/02 04:50:17;;;;;;;;;;;22.40;99.90;;;;;;5034028;28;19910;-66
2023/06/02 04:52:44;;;;;;;;;;;22.50;99.90;;;;;;5032597;28;19984;-68
2023/06/02 04:55:11;;;;;;;;;;;22.50;99.90;;;;;;5033912;28;19921;-66
2023/06/02 04:57:38;;;;;;;;;;;22.50;99.90;;;;;;5034174;28;19913;-68
2023/06/02 05:00:05;;;;;;;;;;;22.50;99.90;;;;;;5031882;28;19939;-65
2023/06/02 05:02:32;;;;;;;;;;;22.60;99.90;;;;;;5030341;28;19917;-65
2023/06/02 05:04:59;;;;;;;;;;;22.50;99.90;;;;;;5033518;28;19909;-63
2023/06/02 05:07:27;;;;;;;;;;;22.20;99.90;;;;;;5033418;28;19986;-62
2023/06/02 05:09:53;;;;;;;;;;;22.20;99.90;;;;;;5034220;28;19916;-64
2023/06/02 05:12:20;;;;;;;;;;;22.30;99.90;;;;;;5032623;28;19909;-64
2023/06/02 05:14:47;;;;;;;;;;;22.40;99.90;;;;;;5032728;28;20434;-62
2023/06/02 05:17:14;;;;;;;;;;;22.50;99.90;;;;;;5033720;28;20054;-64
2023/06/02 05:19:44;;;;;;;;;;;22.50;99.90;;;;;;5033568;28;19916;-63
2023/06/02 05:22:10;;;;;;;;;;;22.50;99.90;;;;;;5031464;28;19920;-62
2023/06/02 05:24:37;;;;;;;;;;;22.20;99.90;;;;;;5031608;28;19917;-63
2023/06/02 05:27:05;;;;;;;;;;;22.10;99.90;;;;;;5032845;28;20367;-65
2023/06/02 05:29:31;;;;;;;;;;;22.10;99.90;;;;;;5032857;28;20016;-64
2023/06/02 05:31:58;;;;;;;;;;;22.00;99.90;;;;;;5031519;28;19917;-66
2023/06/02 05:34:25;;;;;;;;;;;22.00;99.90;;;;;;5031966;28;19917;-62
2023/06/02 05:36:51;;;;;;;;;;;22.00;99.90;;;;;;5032221;28;19909;-64
2023/06/02 05:39:18;;;;;;;;;;;22.20;99.90;;;;;;5032888;28;19921;-67
2023/06/02 05:41:44;;;;;;;;;;;22.40;99.90;;;;;;5032630;28;19909;-63
2023/06/02 05:44:11;;;;;;;;;;;22.40;99.90;;;;;;5031628;28;19917;-63
2023/06/02 05:46:41;;;;;;;;;;;22.50;99.90;;;;;;5033010;28;20364;-63
2023/06/02 05:49:10;;;;;;;;;;;22.50;99.90;;;;;;5028426;28;20271;-63
2023/06/02 05:51:37;;;;;;;;;;;22.40;99.90;;;;;;5032192;28;19913;-63
2023/06/02 05:54:07;;;;;;;;;;;22.20;99.90;;;;;;5031932;28;19921;-65
2023/06/02 05:56:33;;;;;;;;;;;22.10;99.90;;;;;;5030185;28;19913;-63
2023/06/02 05:59:00;;;;;;;;;;;22.20;99.90;;;;;;5032103;28;19917;-61
2023/06/02 06:01:28;;;;;;;;;;;22.30;99.90;;;;;;5030958;28;20495;-62
2023/06/02 06:03:54;;;;;;;;;;;22.30;99.90;;;;;;5031578;28;19917;-65
2023/06/02 06:06:21;;;;;;;;;;;22.30;99.90;;;;;;5031705;28;19909;-63
2023/06/02 06:08:48;;;;;;;;;;;22.10;99.90;;;;;;5032192;28;19917;-65
2023/06/02 06:11:14;;;;;;;;;;;22.00;99.90;;;;;;5031241;28;20231;-64
2023/06/02 06:13:41;;;;;;;;;;;22.00;99.90;;;;;;5031209;28;19913;-66
2023/06/02 06:16:08;;;;;;;;;;;21.90;99.90;;;;;;5031580;28;20255;-64
2023/06/02 06:18:34;;;;;;;;;;;21.80;99.90;;;;;;5032278;28;20021;-64
2023/06/02 06:21:01;;;;;;;;;;;21.60;99.90;;;;;;5032299;28;19909;-67
2023/06/02 06:23:28;;;;;;;;;;;21.50;99.90;;;;;;5031550;28;19920;-63
2023/06/02 06:25:55;;;;;;;;;;;21.20;99.90;;;;;;5030833;28;20023;-63
2023/06/02 06:28:22;;;;;;;;;;;20.90;99.90;;;;;;5031879;28;19920;-63
2023/06/02 06:30:49;;;;;;;;;;;20.70;99.90;;;;;;5031457;28;20484;-63
2023/06/02 06:33:16;;;;;;;;;;;20.40;99.90;;;;;;5032147;28;19961;-66
2023/06/02 06:35:42;;;;;;;;;;;20.20;99.90;;;;;;5032043;28;19979;-64
2023/06/02 06:38:09;;;;;;;;;;;20.10;99.90;;;;;;5030041;28;19913;-66
2023/06/02 06:40:35;;;;;;;;;;;19.90;99.90;;;;;;5030637;28;19909;-64
2023/06/02 06:43:02;;;;;;;;;;;19.70;99.90;;;;;;5030404;28;19955;-61
2023/06/02 06:45:29;;;;;;;;;;;19.60;99.90;;;;;;5030775;28;19914;-64
2023/06/02 06:47:56;;;;;;;;;;;19.50;99.90;;;;;;5030335;28;19913;-62
2023/06/02 06:50:22;;;;;;;;;;;19.30;99.90;;;;;;5030316;28;19929;-64
2023/06/02 06:52:50;;;;;;;;;;;19.30;99.90;;;;;;5023445;28;19916;-66
2023/06/02 06:55:17;;;;;;;;;;;19.10;99.90;;;;;;5029255;28;19921;-65
2023/06/02 06:57:43;;;;;;;;;;;19.00;99.90;;;;;;5029474;28;20298;-63
2023/06/02 07:00:10;;;;;;;;;;;18.90;99.90;;;;;;5029235;28;19909;-65
2023/06/02 07:02:37;;;;;;;;;;;18.80;99.90;;;;;;5026260;28;19919;-65
2023/06/02 07:05:04;;;;;;;;;;;18.80;99.90;;;;;;5028763;28;19956;-64
2023/06/02 07:07:30;;;;;;;;;;;18.60;99.90;;;;;;5029041;28;19916;-63
2023/06/02 07:09:57;;;;;;;;;;;18.60;99.90;;;;;;5029875;28;19913;-66
2023/06/02 07:12:27;;;;;;;;;;;18.50;99.90;;;;;;5027160;28;19909;-63
2023/06/02 07:14:54;;;;;;;;;;;18.40;99.90;;;;;;5030312;28;19927;-65
2023/06/02 07:17:21;;;;;;;;;;;18.40;99.90;;;;;;5029140;28;19913;-66
2023/06/02 07:19:47;;;;;;;;;;;18.40;99.90;;;;;;5028026;28;19913;-64
2023/06/02 07:22:14;;;;;;;;;;;18.30;99.90;;;;;;5026667;28;19929;-64
2023/06/02 07:24:42;;;;;;;;;;;18.20;99.90;;;;;;5027688;28;19913;-63
2023/06/02 07:27:08;;;;;;;;;;;18.10;99.90;;;;;;5029602;28;19956;-65
2023/06/02 07:29:35;;;;;;;;;;;18.20;99.90;;;;;;5030606;28;19916;-65
2023/06/02 07:32:02;;;;;;;;;;;18.10;99.90;;;;;;5029533;28;20389;-64
2023/06/02 07:34:28;;;;;;;;;;;18.10;99.90;;;;;;5028554;28;19973;-62
2023/06/02 07:36:55;;;;;;;;;;;18.00;99.90;;;;;;4994002;28;19957;-63
2023/06/02 07:39:22;;;;;;;;;;;18.00;99.90;;;;;;5029720;28;20003;-67
2023/06/02 07:41:48;;;;;;;;;;;17.90;99.90;;;;;;5028825;28;20405;-62
2023/06/02 07:44:16;;;;;;;;;;;17.90;99.90;;;;;;5031224;28;20012;-64
2023/06/02 07:46:44;;;;;;;;;;;17.80;99.90;;;;;;5023623;28;19909;-66
2023/06/02 07:49:11;;;;;;;;;;;17.80;99.90;;;;;;5025592;28;19905;-64
2023/06/02 07:51:38;;;;;;;;;;;17.80;99.90;;;;;;5029923;28;19913;-66
2023/06/02 07:54:05;;;;;;;;;;;17.80;99.90;;;;;;5029038;28;19913;-61
2023/06/02 07:56:31;;;;;;;;;;;17.70;99.90;;;;;;5030839;28;19909;-62
2023/06/02 07:58:58;;;;;;;;;;;17.70;99.90;;;;;;5029529;28;20384;-64
2023/06/02 08:01:25;;;;;;;;;;;17.70;99.90;;;;;;5028732;28;20409;-62
2023/06/02 08:03:51;;;;;;;;;;;17.70;99.90;;;;;;5026588;28;19931;-62
2023/06/02 08:06:18;;;;;;;;;;;17.60;99.90;;;;;;5028309;28;19910;-62
2023/06/02 08:08:45;;;;;;;;;;;17.60;99.90;;;;;;5031942;28;20312;-65
2023/06/02 08:11:12;;;;;;;;;;;17.60;99.90;;;;;;5033605;28;19909;-67
2023/06/02 08:13:39;;;;;;;;;;;17.50;99.90;;;;;;5029976;28;20440;-63
2023/06/02 08:16:06;;;;;;;;;;;17.50;99.90;;;;;;5033530;28;19928;-66
2023/06/02 08:18:36;;;;;;;;;;;17.50;99.90;;;;;;5034332;28;19909;-66
2023/06/02 08:21:04;;;;;;;;;;;17.50;99.90;;;;;;5034091;28;19909;-63
2023/06/02 08:23:32;;;;;;;;;;;17.50;99.90;;;;;;5031337;28;19909;-66
2023/06/02 08:25:59;;;;;;;;;;;17.40;99.90;;;;;;5031541;28;20267;-62
2023/06/02 08:28:27;;;;;;;;;;;17.50;99.90;;;;;;5034106;28;19909;-67
2023/06/02 08:30:58;;;;;;;;;;;17.50;99.90;;;;;;5033874;28;20251;-66
2023/06/02 08:33:25;;;;;;;;;;;17.40;99.90;;;;;;5032470;28;19956;-65
2023/06/02 08:35:52;;;;;;;;;;;17.40;99.90;;;;;;5031774;28;20375;-67
2023/06/02 08:38:19;;;;;;;;;;;17.40;99.90;;;;;;5034365;28;19987;-67
2023/06/02 08:40:46;;;;;;;;;;;17.40;99.90;;;;;;5034268;28;19963;-65
2023/06/02 08:43:14;;;;;;;;;;;17.40;99.90;;;;;;5033792;28;19913;-66
2023/06/02 08:45:42;;;;;;;;;;;17.40;99.90;;;;;;5031858;28;19917;-65
2023/06/02 08:48:13;;;;;;;;;;;17.30;99.90;;;;;;5034217;28;19909;-66
2023/06/02 08:50:41;;;;;;;;;;;17.30;99.90;;;;;;5034473;28;19987;-63
2023/06/02 08:53:10;;;;;;;;;;;17.30;99.90;;;;;;5033331;28;19921;-65
2023/06/02 08:55:40;;;;;;;;;;;17.30;99.90;;;;;;5033730;28;19925;-65
2023/06/02 08:58:08;;;;;;;;;;;17.20;99.90;;;;;;5034041;28;19916;-65
2023/06/02 09:00:35;;;;;;;;;;;17.20;99.90;;;;;;5033602;28;20381;-65
2023/06/02 09:03:02;;;;;;;;;;;17.20;99.90;;;;;;5033622;28;19909;-66
2023/06/02 09:05:28;;;;;;;;;;;17.20;99.90;;;;;;5033862;28;20314;-66
2023/06/02 09:08:11;;;;;;;;;;;17.10;99.90;;;;;;5033853;28;19918;-66
2023/06/02 09:10:40;;;;;;;;;;;17.10;99.90;;;;;;5033954;28;19944;-65
2023/06/02 09:13:10;;;;;;;;;;;17.10;99.90;;;;;;5033723;28;19909;-63
2023/06/02 09:15:54;;;;;;;;;;;17.10;99.90;;;;;;5033655;28;19921;-60
2023/06/02 09:18:21;;;;;;;;;;;17.10;99.90;;;;;;5033852;28;20373;-65
2023/06/02 09:20:48;;;;;;;;;;;17.00;99.90;;;;;;5032526;28;20434;-68
2023/06/02 09:23:15;;;;;;;;;;;17.00;99.90;;;;;;5033819;28;20011;-67
2023/06/02 09:25:43;;;;;;;;;;;17.00;99.90;;;;;;5033814;28;20004;-66
2023/06/02 09:28:09;;;;;;;;;;;17.00;99.90;;;;;;5033415;28;19913;-60
2023/06/02 09:30:36;;;;;;;;;;;17.00;99.90;;;;;;5033696;28;19967;-66
2023/06/02 09:33:14;;;;;;;;;;;16.90;99.90;;;;;;5033123;28;19909;-61
2023/06/02 09:35:42;;;;;;;;;;;17.00;99.90;;;;;;5032951;28;20393;-61
2023/06/02 09:38:11;;;;;;;;;;;16.90;99.90;;;;;;5033185;28;19909;-65
2023/06/02 09:40:38;;;;;;;;;;;16.90;99.90;;;;;;5033062;28;20004;-65
2023/06/02 09:43:06;;;;;;;;;;;16.90;99.90;;;;;;5032845;28;19909;-65
2023/06/02 09:45:33;;;;;;;;;;;16.90;99.90;;;;;;5032822;28;19963;-66
2023/06/02 09:48:00;;;;;;;;;;;16.90;99.90;;;;;;5033943;28;20297;-66
2023/06/02 09:50:32;;;;;;;;;;;16.90;99.90;;;;;;5033486;28;20111;-66
2023/06/02 09:53:01;;;;;;;;;;;16.80;99.90;;;;;;5032893;28;19909;-61
2023/06/02 09:55:28;;;;;;;;;;;16.90;99.90;;;;;;5032776;28;19921;-62
2023/06/02 09:57:55;;;;;;;;;;;16.80;99.90;;;;;;5033324;28;19910;-65
2023/06/02 10:00:22;;;;;;;;;;;16.80;99.90;;;;;;5033096;28;19909;-61
2023/06/02 10:02:49;;;;;;;;;;;16.80;99.90;;;;;;5033189;28;20366;-67
2023/06/02 10:05:17;;;;;;;;;;;16.70;99.90;;;;;;5033066;28;19916;-67
2023/06/02 10:08:07;;;;;;;;;;;16.70;99.90;;;;;;5032926;28;19931;-61
2023/06/02 10:10:41;;;;;;;;;;;16.60;99.90;;;;;;5027397;28;19920;-60
2023/06/02 10:13:19;;;;;;;;;;;16.60;99.90;;;;;;5032783;28;19976;-64
2023/06/02 10:15:46;;;;;;;;;;;16.50;99.90;;;;;;5032781;28;20378;-65
2023/06/02 10:18:20;;;;;;;;;;;16.50;99.90;;;;;;5032669;28;19911;-66
2023/06/02 10:20:53;;;;;;;;;;;16.50;99.90;;;;;;5032493;28;20427;-61
2023/06/02 10:23:31;;;;;;;;;;;16.50;99.90;;;;;;5032583;28;19909;-66
2023/06/02 10:26:07;;;;;;;;;;;16.40;99.90;;;;;;5032695;28;19913;-63
2023/06/02 10:28:34;;;;;;;;;;;16.40;99.90;;;;;;5032823;28;20043;-63
2023/06/02 10:31:07;;;;;;;;;;;16.30;99.90;;;;;;5032253;28;19909;-66
2023/06/02 10:33:43;;;;;;;;;;;16.40;99.90;;;;;;5032477;28;19916;-65
2023/06/02 10:36:12;;;;;;;;;;;16.40;99.90;;;;;;5032479;28;19964;-66
2023/06/02 10:38:38;;;;;;;;;;;16.40;99.90;;;;;;5032366;28;19949;-61
2023/06/02 10:41:06;;;;;;;;;;;16.40;99.90;;;;;;5032103;28;19920;-60
2023/06/02 10:43:35;;;;;;;;;;;16.40;99.90;;;;;;5032518;28;20358;-61
2023/06/02 10:46:18;;;;;;;;;;;16.50;99.90;;;;;;5032834;28;19916;-59
2023/06/02 10:48:45;;;;;;;;;;;16.50;99.90;;;;;;5032750;28;19913;-61
2023/06/02 10:51:12;;;;;;;;;;;16.50;99.90;;;;;;5031141;28;19976;-64
2023/06/02 10:53:57;;;;;;;;;;;16.60;99.90;;;;;;5028757;28;20258;-67
2023/06/02 10:56:35;;;;;;;;;;;16.50;99.90;;;;;;5032507;28;20335;-66
2023/06/02 10:59:02;;;;;;;;;;;16.60;99.90;;;;;;5031964;28;19917;-68
2023/06/02 11:01:48;;;;;;;;;;;16.60;99.90;;;;;;5031842;28;20574;-66
2023/06/02 11:04:25;;;;;;;;;;;16.60;99.90;;;;;;5027361;28;19948;-69
2023/06/02 11:07:12;;;;;;;;;;;16.70;99.90;;;;;;5029469;28;20347;-68
2023/06/02 11:09:43;;;;;;;;;;;16.70;99.90;;;;;;5030695;28;19955;-61
2023/06/02 11:12:09;;;;;;;;;;;16.70;99.90;;;;;;5029435;28;19913;-61
2023/06/02 11:14:54;;;;;;;;;;;16.70;99.90;;;;;;5028598;28;19924;-63
2023/06/02 11:17:31;;;;;;;;;;;16.80;99.90;;;;;;5030741;28;19910;-67
2023/06/02 11:19:58;;;;;;;;;;;16.70;99.90;;;;;;5030590;28;19914;-61
2023/06/02 11:22:28;;;;;;;;;;;16.70;99.90;;;;;;5031833;28;19915;-66
2023/06/02 11:24:55;;;;;;;;;;;16.70;99.90;;;;;;5029035;28;20313;-60
2023/06/02 11:27:35;;;;;;;;;;;16.80;99.90;;;;;;5032123;28;20343;-67
2023/06/02 11:30:09;;;;;;;;;;;16.80;99.90;;;;;;5031216;28;20321;-68
2023/06/02 11:32:36;;;;;;;;;;;16.80;99.90;;;;;;5014986;28;19909;-66
2023/06/02 11:35:07;;;;;;;;;;;16.80;99.90;;;;;;5033087;28;19942;-61
2023/06/02 11:37:40;;;;;;;;;;;16.70;99.90;;;;;;5034328;28;20004;-63
2023/06/02 11:40:08;;;;;;;;;;;16.70;99.90;;;;;;5032684;28;19916;-64
2023/06/02 11:42:35;;;;;;;;;;;16.70;99.90;;;;;;5032507;28;20433;-65
2023/06/02 11:45:01;;;;;;;;;;;16.70;99.90;;;;;;5035866;28;20004;-66
2023/06/02 11:47:28;;;;;;;;;;;16.70;99.90;;;;;;5036173;28;19948;-65
2023/06/02 11:49:55;;;;;;;;;;;16.60;99.90;;;;;;5036242;28;20347;-66
2023/06/02 11:52:21;;;;;;;;;;;16.60;99.90;;;;;;5035909;28;19913;-63
2023/06/02 11:54:51;;;;;;;;;;;16.60;99.90;;;;;;5035618;28;19929;-67
2023/06/02 11:57:31;;;;;;;;;;;16.50;99.90;;;;;;5035950;28;20362;-68
2023/06/02 12:00:26;;;;;;;;;;;16.50;99.90;;;;;;5035381;28;19913;-63
2023/06/02 12:03:07;;;;;;;;;;;16.50;99.90;;;;;;5034940;28;20355;-62
2023/06/02 12:05:34;;;;;;;;;;;16.50;99.90;;;;;;5016029;28;19956;-60
2023/06/02 12:08:11;;;;;;;;;;;16.40;99.90;;;;;;5016182;28;19916;-67
2023/06/02 12:10:39;;;;;;;;;;;16.40;99.90;;;;;;5015789;28;20348;-61
2023/06/02 12:13:05;;;;;;;;;;;16.40;99.90;;;;;;5016858;28;19909;-61
2023/06/02 12:15:36;;;;;;;;;;;16.40;99.90;;;;;;5035054;28;19918;-62
2023/06/02 12:18:06;;;;;;;;;;;16.40;99.90;;;;;;5035685;28;19963;-63
2023/06/02 12:20:36;;;;;;;;;;;16.40;99.90;;;;;;5035632;28;20354;-62
2023/06/02 12:23:03;;;;;;;;;;;16.30;99.90;;;;;;5035081;28;20048;-62
2023/06/02 12:25:29;;;;;;;;;;;16.30;99.90;;;;;;5035262;28;19909;-68
2023/06/02 12:28:28;;;;;;;;;;;16.30;99.90;;;;;;5017616;28;19917;-61
2023/06/02 12:30:55;;;;;;;;;;;16.20;99.90;;;;;;4991706;28;20286;-66
2023/06/02 12:33:21;;;;;;;;;;;16.30;99.90;;;;;;5035322;28;19948;-64
2023/06/02 12:35:48;;;;;;;;;;;16.30;99.90;;;;;;5035419;28;20378;-66
2023/06/02 12:38:15;;;;;;;;;;;16.20;99.90;;;;;;5034993;28;20363;-65
2023/06/02 12:40:42;;;;;;;;;;;16.20;99.90;;;;;;5034909;28;19909;-62
2023/06/02 12:43:08;;;;;;;;;;;16.30;99.90;;;;;;5034515;28;19917;-62
2023/06/02 12:45:35;;;;;;;;;;;16.20;99.90;;;;;;5035045;28;20267;-61
2023/06/02 12:48:03;;;;;;;;;;;16.20;99.90;;;;;;5034807;28;19909;-61
2023/06/02 12:50:30;;;;;;;;;;;16.20;99.90;;;;;;5035233;28;19963;-66
2023/06/02 12:52:57;;;;;;;;;;;16.20;99.90;;;;;;5034953;28;19909;-65
2023/06/02 12:55:24;;;;;;;;;;;16.20;99.90;;;;;;5034169;28;19967;-64
2023/06/02 12:57:51;;;;;;;;;;;16.20;99.90;;;;;;5039413;28;19967;-61
2023/06/02 13:00:18;;;;;;;;;;;16.20;99.90;;;;;;5054513;28;20453;-62
2023/06/02 13:02:44;;;;;;;;;;;16.30;99.90;;;;;;5040487;28;19964;-65
2023/06/02 13:05:11;;;;;;;;;;;16.20;99.90;;;;;;5032390;28;20623;-67
2023/06/02 13:07:38;;;;;;;;;;;16.20;99.90;;;;;;5034209;28;20398;-67
2023/06/02 13:10:06;;;;;;;;;;;16.10;99.90;;;;;;5033525;28;19913;-66
2023/06/02 13:12:33;;;;;;;;;;;16.20;99.90;;;;;;5034410;28;19909;-66
2023/06/02 13:15:01;;;;;;;;;;;16.20;99.90;;;;;;5034307;28;20255;-67
2023/06/02 13:17:28;;;;;;;;;;;16.20;99.90;;;;;;5034828;28;19963;-68
2023/06/02 13:19:55;;;;;;;;;;;16.20;99.90;;;;;;5034610;28;19968;-67
2023/06/02 13:22:21;;;;;;;;;;;16.20;99.90;;;;;;5033993;28;19999;-64
2023/06/02 13:24:48;;;;;;;;;;;16.20;99.90;;;;;;5033935;28;19987;-66
2023/06/02 13:27:15;;;;;;;;;;;16.20;99.90;;;;;;5034306;28;19920;-67
2023/06/02 13:29:42;;;;;;;;;;;16.20;99.90;;;;;;5034306;28;19909;-61
2023/06/02 13:32:08;;;;;;;;;;;16.20;99.90;;;;;;5034175;28;19948;-62
2023/06/02 13:34:35;;;;;;;;;;;16.20;99.90;;;;;;5033521;28;20397;-59
2023/06/02 13:37:02;;;;;;;;;;;16.20;99.90;;;;;;5033910;28;19913;-62
2023/06/02 13:39:28;;;;;;;;;;;16.10;99.90;;;;;;5034170;28;20292;-65
2023/06/02 13:41:55;;;;;;;;;;;16.10;99.90;;;;;;5034350;28;19909;-65
2023/06/02 13:44:22;;;;;;;;;;;16.20;99.90;;;;;;5033788;28;20259;-60
2023/06/02 13:46:51;;;;;;;;;;;16.10;99.90;;;;;;5034120;28;19920;-68
2023/06/02 13:49:19;;;;;;;;;;;16.10;99.90;;;;;;5033833;28;19909;-64
2023/06/02 13:51:49;;;;;;;;;;;16.10;99.90;;;;;;5033993;28;19909;-66
2023/06/02 13:54:18;;;;;;;;;;;16.10;99.90;;;;;;5033493;28;20036;-61
2023/06/02 13:56:45;;;;;;;;;;;16.10;99.90;;;;;;5034000;28;19913;-64
2023/06/02 13:59:12;;;;;;;;;;;16.10;99.90;;;;;;5033659;28;19959;-60
2023/06/02 14:01:39;;;;;;;;;;;16.10;99.90;;;;;;5033486;28;20571;-61
2023/06/02 14:04:08;;;;;;;;;;;16.10;99.90;;;;;;5033424;28;19917;-69
2023/06/02 14:06:35;;;;;;;;;;;16.10;99.90;;;;;;5033010;28;20007;-67
2023/06/02 14:09:06;;;;;;;;;;;16.10;99.90;;;;;;5033595;28;19971;-68
2023/06/02 14:11:38;;;;;;;;;;;16.00;99.90;;;;;;5033766;28;19909;-67
2023/06/02 14:14:05;;;;;;;;;;;16.10;99.90;;;;;;5033143;28;19916;-62
2023/06/02 14:16:32;;;;;;;;;;;16.00;99.90;;;;;;5032970;28;20382;-66
2023/06/02 14:18:59;;;;;;;;;;;16.00;99.90;;;;;;5033001;28;19913;-67
2023/06/02 14:21:25;;;;;;;;;;;16.00;99.90;;;;;;5033531;28;19918;-60